sensor_id;sensor_type;location;lat;lon;timestamp;P1;durP1;ratioP1;P2;durP2;ratioP2
72547;SDS011;60570;50.848;6.776;2022-07-29T00:00:52;2.95;;;0.85;;
72547;SDS011;60570;50.848;6.776;2022-07-29T00:01:52;2.75;;;0.70;;
72547;SDS011;60570;50.848;6.776;2022-07-29T00:02:53;3.10;;;0.80;;
72547;SDS011;60570;50.848;6.776;2022-07-29T00:03:53;3.33;;;0.90;;
72547;SDS011;60570;50.848;6.776;2022-07-29T00:04:54;4.47;;;0.75;;
72547;SDS011;60570;50.848;6.776;2022-07-29T00:05:54;3.60;;;1.00;;
72547;SDS011;60570;50.848;6.776;2022-07-29T00:06:55;1.90;;;0.70;;
72547;SDS011;60570;50.848;6.776;2022-07-29T00:07:55;2.35;;;0.75;;
72547;SDS011;60570;50.848;6.776;2022-07-29T00:08:56;4.75;;;0.93;;
72547;SDS011;60570;50.848;6.776;2022-07-29T00:09:56;2.78;;;0.93;;
72547;SDS011;60570;50.848;6.776;2022-07-29T00:10:57;3.80;;;1.10;;
72547;SDS011;60570;50.848;6.776;2022-07-29T00:11:59;2.78;;;0.63;;
72547;SDS011;60570;50.848;6.776;2022-07-29T00:13:00;2.60;;;0.60;;
72547;SDS011;60570;50.848;6.776;2022-07-29T00:14:01;3.28;;;0.75;;
72547;SDS011;60570;50.848;6.776;2022-07-29T00:15:01;3.40;;;0.75;;
72547;SDS011;60570;50.848;6.776;2022-07-29T00:16:03;3.53;;;0.80;;
72547;SDS011;60570;50.848;6.776;2022-07-29T00:17:04;3.53;;;0.80;;
72547;SDS011;60570;50.848;6.776;2022-07-29T00:18:04;3.28;;;0.80;;
72547;SDS011;60570;50.848;6.776;2022-07-29T00:19:05;3.22;;;0.98;;
72547;SDS011;60570;50.848;6.776;2022-07-29T00:20:05;3.17;;;0.90;;
72547;SDS011;60570;50.848;6.776;2022-07-29T00:21:07;3.85;;;1.02;;
72547;SDS011;60570;50.848;6.776;2022-07-29T00:22:07;2.53;;;0.85;;
72547;SDS011;60570;50.848;6.776;2022-07-29T00:23:07;3.95;;;1.00;;
72547;SDS011;60570;50.848;6.776;2022-07-29T00:24:08;5.45;;;1.15;;
72547;SDS011;60570;50.848;6.776;2022-07-29T00:25:08;3.03;;;0.70;;
72547;SDS011;60570;50.848;6.776;2022-07-29T00:26:09;3.13;;;0.93;;
72547;SDS011;60570;50.848;6.776;2022-07-29T00:27:09;3.97;;;0.95;;
72547;SDS011;60570;50.848;6.776;2022-07-29T00:28:10;3.30;;;0.90;;
72547;SDS011;60570;50.848;6.776;2022-07-29T00:29:10;3.58;;;0.80;;
72547;SDS011;60570;50.848;6.776;2022-07-29T00:30:11;4.53;;;1.05;;
72547;SDS011;60570;50.848;6.776;2022-07-29T00:31:12;2.70;;;0.90;;
72547;SDS011;60570;50.848;6.776;2022-07-29T00:32:12;3.25;;;0.93;;
72547;SDS011;60570;50.848;6.776;2022-07-29T00:33:13;2.03;;;0.82;;
72547;SDS011;60570;50.848;6.776;2022-07-29T00:34:13;3.78;;;0.95;;
72547;SDS011;60570;50.848;6.776;2022-07-29T00:35:32;2.35;;;0.80;;
72547;SDS011;60570;50.848;6.776;2022-07-29T00:36:58;3.13;;;0.77;;
72547;SDS011;60570;50.848;6.776;2022-07-29T00:37:59;4.18;;;0.90;;
72547;SDS011;60570;50.848;6.776;2022-07-29T00:38:59;2.72;;;0.90;;
72547;SDS011;60570;50.848;6.776;2022-07-29T00:39:59;3.45;;;0.82;;
72547;SDS011;60570;50.848;6.776;2022-07-29T00:41:00;3.17;;;0.82;;
72547;SDS011;60570;50.848;6.776;2022-07-29T00:42:02;3.55;;;0.90;;
72547;SDS011;60570;50.848;6.776;2022-07-29T00:43:04;3.30;;;0.90;;
72547;SDS011;60570;50.848;6.776;2022-07-29T00:44:04;3.05;;;1.00;;
72547;SDS011;60570;50.848;6.776;2022-07-29T00:45:04;1.40;;;0.40;;
72547;SDS011;60570;50.848;6.776;2022-07-29T00:46:05;2.17;;;0.88;;
72547;SDS011;60570;50.848;6.776;2022-07-29T00:47:06;2.80;;;0.80;;
72547;SDS011;60570;50.848;6.776;2022-07-29T00:48:07;3.13;;;0.93;;
72547;SDS011;60570;50.848;6.776;2022-07-29T00:49:08;3.28;;;1.02;;
72547;SDS011;60570;50.848;6.776;2022-07-29T00:50:10;4.40;;;1.02;;
72547;SDS011;60570;50.848;6.776;2022-07-29T00:51:12;2.72;;;0.80;;
72547;SDS011;60570;50.848;6.776;2022-07-29T00:52:12;4.72;;;1.02;;
72547;SDS011;60570;50.848;6.776;2022-07-29T00:53:13;3.88;;;0.93;;
72547;SDS011;60570;50.848;6.776;2022-07-29T00:54:13;2.83;;;0.80;;
72547;SDS011;60570;50.848;6.776;2022-07-29T00:55:14;2.97;;;0.95;;
72547;SDS011;60570;50.848;6.776;2022-07-29T00:56:15;3.25;;;1.00;;
72547;SDS011;60570;50.848;6.776;2022-07-29T00:57:16;3.40;;;0.80;;
72547;SDS011;60570;50.848;6.776;2022-07-29T00:58:16;3.08;;;0.95;;
72547;SDS011;60570;50.848;6.776;2022-07-29T00:59:17;4.55;;;0.80;;
72547;SDS011;60570;50.848;6.776;2022-07-29T01:00:19;3.72;;;0.85;;
72547;SDS011;60570;50.848;6.776;2022-07-29T01:01:23;2.42;;;0.60;;
72547;SDS011;60570;50.848;6.776;2022-07-29T01:02:24;4.95;;;1.13;;
72547;SDS011;60570;50.848;6.776;2022-07-29T01:03:24;3.03;;;0.80;;
72547;SDS011;60570;50.848;6.776;2022-07-29T01:04:25;2.55;;;0.80;;
72547;SDS011;60570;50.848;6.776;2022-07-29T01:05:26;2.85;;;0.90;;
72547;SDS011;60570;50.848;6.776;2022-07-29T01:06:28;3.47;;;0.80;;
72547;SDS011;60570;50.848;6.776;2022-07-29T01:07:28;2.42;;;0.82;;
72547;SDS011;60570;50.848;6.776;2022-07-29T01:08:30;3.53;;;0.90;;
72547;SDS011;60570;50.848;6.776;2022-07-29T01:09:32;2.88;;;0.68;;
72547;SDS011;60570;50.848;6.776;2022-07-29T01:10:34;2.75;;;0.80;;
72547;SDS011;60570;50.848;6.776;2022-07-29T01:11:37;3.42;;;0.88;;
72547;SDS011;60570;50.848;6.776;2022-07-29T01:12:39;3.25;;;0.82;;
72547;SDS011;60570;50.848;6.776;2022-07-29T01:13:40;4.53;;;1.13;;
72547;SDS011;60570;50.848;6.776;2022-07-29T01:14:42;4.85;;;0.85;;
72547;SDS011;60570;50.848;6.776;2022-07-29T01:15:44;6.07;;;1.10;;
72547;SDS011;60570;50.848;6.776;2022-07-29T01:17:05;4.25;;;0.70;;
72547;SDS011;60570;50.848;6.776;2022-07-29T01:18:16;6.28;;;1.08;;
72547;SDS011;60570;50.848;6.776;2022-07-29T01:29:00;2.88;;;0.77;;
72547;SDS011;60570;50.848;6.776;2022-07-29T01:30:05;7.38;;;1.20;;
72547;SDS011;60570;50.848;6.776;2022-07-29T01:31:06;3.45;;;1.00;;
72547;SDS011;60570;50.848;6.776;2022-07-29T01:32:11;2.58;;;0.95;;
72547;SDS011;60570;50.848;6.776;2022-07-29T01:33:15;4.20;;;1.23;;
72547;SDS011;60570;50.848;6.776;2022-07-29T01:34:47;3.00;;;0.85;;
72547;SDS011;60570;50.848;6.776;2022-07-29T01:36:02;3.13;;;0.85;;
72547;SDS011;60570;50.848;6.776;2022-07-29T01:37:14;5.57;;;0.90;;
72547;SDS011;60570;50.848;6.776;2022-07-29T01:38:20;4.32;;;0.90;;
72547;SDS011;60570;50.848;6.776;2022-07-29T01:39:31;4.78;;;1.00;;
72547;SDS011;60570;50.848;6.776;2022-07-29T01:41:53;3.28;;;0.70;;
72547;SDS011;60570;50.848;6.776;2022-07-29T01:43:19;3.38;;;0.80;;
72547;SDS011;60570;50.848;6.776;2022-07-29T01:44:27;3.60;;;1.00;;
72547;SDS011;60570;50.848;6.776;2022-07-29T01:46:39;3.85;;;0.90;;
72547;SDS011;60570;50.848;6.776;2022-07-29T01:48:18;3.85;;;0.90;;
72547;SDS011;60570;50.848;6.776;2022-07-29T01:49:21;3.53;;;1.00;;
72547;SDS011;60570;50.848;6.776;2022-07-29T01:50:26;2.97;;;0.73;;
72547;SDS011;60570;50.848;6.776;2022-07-29T01:51:35;2.90;;;0.73;;
72547;SDS011;60570;50.848;6.776;2022-07-29T01:52:45;4.65;;;0.80;;
72547;SDS011;60570;50.848;6.776;2022-07-29T01:55:09;2.65;;;0.98;;
72547;SDS011;60570;50.848;6.776;2022-07-29T01:56:13;2.78;;;0.68;;
72547;SDS011;60570;50.848;6.776;2022-07-29T01:57:18;2.80;;;0.75;;
72547;SDS011;60570;50.848;6.776;2022-07-29T01:58:21;2.30;;;0.98;;
72547;SDS011;60570;50.848;6.776;2022-07-29T01:59:23;3.88;;;1.00;;
72547;SDS011;60570;50.848;6.776;2022-07-29T02:00:25;2.15;;;0.70;;
72547;SDS011;60570;50.848;6.776;2022-07-29T02:01:27;8.50;;;1.38;;
72547;SDS011;60570;50.848;6.776;2022-07-29T02:02:31;4.10;;;1.00;;
72547;SDS011;60570;50.848;6.776;2022-07-29T02:03:35;3.47;;;0.93;;
72547;SDS011;60570;50.848;6.776;2022-07-29T02:04:36;3.08;;;0.70;;
72547;SDS011;60570;50.848;6.776;2022-07-29T02:05:39;3.08;;;0.90;;
72547;SDS011;60570;50.848;6.776;2022-07-29T02:06:42;3.85;;;0.90;;
72547;SDS011;60570;50.848;6.776;2022-07-29T02:07:44;3.33;;;0.95;;
72547;SDS011;60570;50.848;6.776;2022-07-29T02:08:47;4.43;;;0.75;;
72547;SDS011;60570;50.848;6.776;2022-07-29T02:09:49;3.90;;;0.93;;
72547;SDS011;60570;50.848;6.776;2022-07-29T02:10:52;4.15;;;0.90;;
72547;SDS011;60570;50.848;6.776;2022-07-29T02:11:53;3.28;;;0.90;;
72547;SDS011;60570;50.848;6.776;2022-07-29T02:12:56;5.97;;;0.88;;
72547;SDS011;60570;50.848;6.776;2022-07-29T02:13:58;4.78;;;1.08;;
72547;SDS011;60570;50.848;6.776;2022-07-29T02:15:02;3.72;;;1.10;;
72547;SDS011;60570;50.848;6.776;2022-07-29T02:16:04;3.35;;;0.90;;
72547;SDS011;60570;50.848;6.776;2022-07-29T02:17:07;2.47;;;0.60;;
72547;SDS011;60570;50.848;6.776;2022-07-29T02:18:09;4.93;;;1.10;;
72547;SDS011;60570;50.848;6.776;2022-07-29T02:19:14;4.20;;;0.85;;
72547;SDS011;60570;50.848;6.776;2022-07-29T02:20:17;3.58;;;0.90;;
72547;SDS011;60570;50.848;6.776;2022-07-29T02:21:21;2.97;;;0.90;;
72547;SDS011;60570;50.848;6.776;2022-07-29T02:22:24;4.90;;;1.20;;
72547;SDS011;60570;50.848;6.776;2022-07-29T02:24:30;2.28;;;0.68;;
72547;SDS011;60570;50.848;6.776;2022-07-29T02:25:31;2.72;;;0.73;;
72547;SDS011;60570;50.848;6.776;2022-07-29T02:26:32;3.53;;;1.00;;
72547;SDS011;60570;50.848;6.776;2022-07-29T02:27:33;2.92;;;0.75;;
72547;SDS011;60570;50.848;6.776;2022-07-29T02:28:35;3.90;;;1.08;;
72547;SDS011;60570;50.848;6.776;2022-07-29T02:29:36;3.50;;;0.85;;
72547;SDS011;60570;50.848;6.776;2022-07-29T02:30:39;2.95;;;0.68;;
72547;SDS011;60570;50.848;6.776;2022-07-29T02:31:41;3.13;;;0.75;;
72547;SDS011;60570;50.848;6.776;2022-07-29T02:32:46;2.58;;;0.80;;
72547;SDS011;60570;50.848;6.776;2022-07-29T02:33:49;2.67;;;0.70;;
72547;SDS011;60570;50.848;6.776;2022-07-29T02:34:51;4.55;;;1.17;;
72547;SDS011;60570;50.848;6.776;2022-07-29T02:35:53;2.30;;;0.80;;
72547;SDS011;60570;50.848;6.776;2022-07-29T02:36:56;3.15;;;0.98;;
72547;SDS011;60570;50.848;6.776;2022-07-29T02:37:56;5.80;;;0.90;;
72547;SDS011;60570;50.848;6.776;2022-07-29T02:39:15;2.90;;;0.88;;
72547;SDS011;60570;50.848;6.776;2022-07-29T02:40:18;4.05;;;1.00;;
72547;SDS011;60570;50.848;6.776;2022-07-29T02:41:29;3.30;;;0.82;;
72547;SDS011;60570;50.848;6.776;2022-07-29T02:42:33;3.75;;;1.27;;
72547;SDS011;60570;50.848;6.776;2022-07-29T02:43:36;4.78;;;1.10;;
72547;SDS011;60570;50.848;6.776;2022-07-29T02:44:38;2.85;;;0.80;;
72547;SDS011;60570;50.848;6.776;2022-07-29T02:45:38;3.35;;;1.15;;
72547;SDS011;60570;50.848;6.776;2022-07-29T02:46:44;3.17;;;0.85;;
72547;SDS011;60570;50.848;6.776;2022-07-29T02:47:48;6.03;;;1.02;;
72547;SDS011;60570;50.848;6.776;2022-07-29T02:48:55;3.97;;;1.00;;
72547;SDS011;60570;50.848;6.776;2022-07-29T02:51:10;3.70;;;1.00;;
72547;SDS011;60570;50.848;6.776;2022-07-29T02:52:20;3.90;;;0.82;;
72547;SDS011;60570;50.848;6.776;2022-07-29T02:53:24;3.78;;;0.85;;
72547;SDS011;60570;50.848;6.776;2022-07-29T02:55:46;4.72;;;0.93;;
72547;SDS011;60570;50.848;6.776;2022-07-29T02:56:51;3.47;;;0.80;;
72547;SDS011;60570;50.848;6.776;2022-07-29T02:59:15;3.00;;;0.95;;
72547;SDS011;60570;50.848;6.776;2022-07-29T03:00:23;5.13;;;0.93;;
72547;SDS011;60570;50.848;6.776;2022-07-29T03:01:29;7.28;;;1.15;;
72547;SDS011;60570;50.848;6.776;2022-07-29T03:02:33;4.18;;;1.08;;
72547;SDS011;60570;50.848;6.776;2022-07-29T03:03:37;2.45;;;0.60;;
72547;SDS011;60570;50.848;6.776;2022-07-29T03:04:39;3.03;;;0.98;;
72547;SDS011;60570;50.848;6.776;2022-07-29T03:05:42;3.88;;;1.17;;
72547;SDS011;60570;50.848;6.776;2022-07-29T03:06:43;3.40;;;0.82;;
72547;SDS011;60570;50.848;6.776;2022-07-29T03:07:47;4.50;;;0.93;;
72547;SDS011;60570;50.848;6.776;2022-07-29T03:08:52;3.33;;;0.82;;
72547;SDS011;60570;50.848;6.776;2022-07-29T03:09:54;4.25;;;0.95;;
72547;SDS011;60570;50.848;6.776;2022-07-29T03:10:56;4.75;;;1.00;;
72547;SDS011;60570;50.848;6.776;2022-07-29T03:11:57;2.97;;;0.80;;
72547;SDS011;60570;50.848;6.776;2022-07-29T03:12:58;3.45;;;0.85;;
72547;SDS011;60570;50.848;6.776;2022-07-29T03:14:00;4.03;;;1.00;;
72547;SDS011;60570;50.848;6.776;2022-07-29T03:15:02;3.15;;;0.82;;
72547;SDS011;60570;50.848;6.776;2022-07-29T03:16:02;3.15;;;0.90;;
72547;SDS011;60570;50.848;6.776;2022-07-29T03:17:04;5.90;;;0.88;;
72547;SDS011;60570;50.848;6.776;2022-07-29T03:18:05;2.95;;;1.00;;
72547;SDS011;60570;50.848;6.776;2022-07-29T03:19:06;4.72;;;0.85;;
72547;SDS011;60570;50.848;6.776;2022-07-29T03:20:07;2.80;;;0.95;;
72547;SDS011;60570;50.848;6.776;2022-07-29T03:21:08;4.40;;;0.70;;
72547;SDS011;60570;50.848;6.776;2022-07-29T03:22:08;3.10;;;0.80;;
72547;SDS011;60570;50.848;6.776;2022-07-29T03:23:09;3.10;;;0.90;;
72547;SDS011;60570;50.848;6.776;2022-07-29T03:24:10;4.32;;;0.90;;
72547;SDS011;60570;50.848;6.776;2022-07-29T03:25:10;4.95;;;0.82;;
72547;SDS011;60570;50.848;6.776;2022-07-29T03:26:12;4.95;;;1.13;;
72547;SDS011;60570;50.848;6.776;2022-07-29T03:27:12;4.28;;;0.98;;
72547;SDS011;60570;50.848;6.776;2022-07-29T03:28:13;2.80;;;0.80;;
72547;SDS011;60570;50.848;6.776;2022-07-29T03:29:13;3.65;;;0.95;;
72547;SDS011;60570;50.848;6.776;2022-07-29T03:30:14;3.30;;;0.98;;
72547;SDS011;60570;50.848;6.776;2022-07-29T03:31:15;3.17;;;0.98;;
72547;SDS011;60570;50.848;6.776;2022-07-29T03:32:16;3.85;;;1.20;;
72547;SDS011;60570;50.848;6.776;2022-07-29T03:33:16;4.90;;;1.00;;
72547;SDS011;60570;50.848;6.776;2022-07-29T03:34:17;2.92;;;0.90;;
72547;SDS011;60570;50.848;6.776;2022-07-29T03:35:18;3.65;;;1.13;;
72547;SDS011;60570;50.848;6.776;2022-07-29T03:36:19;5.00;;;1.27;;
72547;SDS011;60570;50.848;6.776;2022-07-29T03:37:19;2.63;;;0.90;;
72547;SDS011;60570;50.848;6.776;2022-07-29T03:38:20;4.20;;;1.00;;
72547;SDS011;60570;50.848;6.776;2022-07-29T03:39:25;5.35;;;1.00;;
72547;SDS011;60570;50.848;6.776;2022-07-29T03:41:36;4.45;;;1.20;;
72547;SDS011;60570;50.848;6.776;2022-07-29T03:42:39;4.28;;;0.85;;
72547;SDS011;60570;50.848;6.776;2022-07-29T03:43:42;5.80;;;1.13;;
72547;SDS011;60570;50.848;6.776;2022-07-29T03:44:44;4.95;;;1.10;;
72547;SDS011;60570;50.848;6.776;2022-07-29T03:45:49;5.10;;;1.15;;
72547;SDS011;60570;50.848;6.776;2022-07-29T03:46:53;4.07;;;0.93;;
72547;SDS011;60570;50.848;6.776;2022-07-29T03:48:02;4.60;;;1.30;;
72547;SDS011;60570;50.848;6.776;2022-07-29T03:49:07;3.08;;;0.90;;
72547;SDS011;60570;50.848;6.776;2022-07-29T03:50:10;3.28;;;0.75;;
72547;SDS011;60570;50.848;6.776;2022-07-29T03:51:13;3.67;;;1.10;;
72547;SDS011;60570;50.848;6.776;2022-07-29T03:52:14;3.03;;;0.82;;
72547;SDS011;60570;50.848;6.776;2022-07-29T03:53:14;5.15;;;1.15;;
72547;SDS011;60570;50.848;6.776;2022-07-29T03:54:15;5.63;;;1.10;;
72547;SDS011;60570;50.848;6.776;2022-07-29T03:55:16;3.72;;;1.20;;
72547;SDS011;60570;50.848;6.776;2022-07-29T03:56:16;3.75;;;1.13;;
72547;SDS011;60570;50.848;6.776;2022-07-29T03:57:20;3.95;;;1.35;;
72547;SDS011;60570;50.848;6.776;2022-07-29T03:58:25;6.97;;;1.10;;
72547;SDS011;60570;50.848;6.776;2022-07-29T03:59:27;4.80;;;0.98;;
72547;SDS011;60570;50.848;6.776;2022-07-29T04:00:30;4.07;;;1.00;;
72547;SDS011;60570;50.848;6.776;2022-07-29T04:01:32;3.42;;;0.90;;
72547;SDS011;60570;50.848;6.776;2022-07-29T04:02:34;3.28;;;0.88;;
72547;SDS011;60570;50.848;6.776;2022-07-29T04:03:35;3.67;;;0.90;;
72547;SDS011;60570;50.848;6.776;2022-07-29T04:04:36;3.13;;;0.95;;
72547;SDS011;60570;50.848;6.776;2022-07-29T04:05:37;4.95;;;1.15;;
72547;SDS011;60570;50.848;6.776;2022-07-29T04:06:41;5.78;;;0.82;;
72547;SDS011;60570;50.848;6.776;2022-07-29T04:07:43;5.03;;;1.10;;
72547;SDS011;60570;50.848;6.776;2022-07-29T04:08:45;3.08;;;1.05;;
72547;SDS011;60570;50.848;6.776;2022-07-29T04:09:45;5.47;;;1.10;;
72547;SDS011;60570;50.848;6.776;2022-07-29T04:10:45;4.45;;;1.10;;
72547;SDS011;60570;50.848;6.776;2022-07-29T04:11:47;4.43;;;1.50;;
72547;SDS011;60570;50.848;6.776;2022-07-29T04:12:48;3.97;;;0.95;;
72547;SDS011;60570;50.848;6.776;2022-07-29T04:13:48;5.50;;;1.20;;
72547;SDS011;60570;50.848;6.776;2022-07-29T04:14:49;4.47;;;1.00;;
72547;SDS011;60570;50.848;6.776;2022-07-29T04:15:50;4.95;;;1.05;;
72547;SDS011;60570;50.848;6.776;2022-07-29T04:16:50;4.60;;;1.00;;
72547;SDS011;60570;50.848;6.776;2022-07-29T04:17:51;3.10;;;0.90;;
72547;SDS011;60570;50.848;6.776;2022-07-29T04:18:51;5.63;;;1.10;;
72547;SDS011;60570;50.848;6.776;2022-07-29T04:19:52;3.05;;;0.95;;
72547;SDS011;60570;50.848;6.776;2022-07-29T04:20:52;4.55;;;1.17;;
72547;SDS011;60570;50.848;6.776;2022-07-29T04:21:52;3.85;;;0.98;;
72547;SDS011;60570;50.848;6.776;2022-07-29T04:22:53;5.88;;;1.08;;
72547;SDS011;60570;50.848;6.776;2022-07-29T04:23:53;5.18;;;1.27;;
72547;SDS011;60570;50.848;6.776;2022-07-29T04:24:53;6.35;;;1.35;;
72547;SDS011;60570;50.848;6.776;2022-07-29T04:25:54;6.07;;;1.38;;
72547;SDS011;60570;50.848;6.776;2022-07-29T04:26:54;5.97;;;1.45;;
72547;SDS011;60570;50.848;6.776;2022-07-29T04:27:55;7.30;;;1.42;;
72547;SDS011;60570;50.848;6.776;2022-07-29T04:29:01;6.03;;;1.55;;
72547;SDS011;60570;50.848;6.776;2022-07-29T04:30:01;5.25;;;1.27;;
72547;SDS011;60570;50.848;6.776;2022-07-29T04:31:02;7.38;;;1.45;;
72547;SDS011;60570;50.848;6.776;2022-07-29T04:32:02;6.03;;;1.50;;
72547;SDS011;60570;50.848;6.776;2022-07-29T04:33:04;5.57;;;1.45;;
72547;SDS011;60570;50.848;6.776;2022-07-29T04:34:05;6.20;;;1.70;;
72547;SDS011;60570;50.848;6.776;2022-07-29T04:35:06;7.03;;;1.63;;
72547;SDS011;60570;50.848;6.776;2022-07-29T04:36:07;7.22;;;1.70;;
72547;SDS011;60570;50.848;6.776;2022-07-29T04:37:07;7.18;;;1.80;;
72547;SDS011;60570;50.848;6.776;2022-07-29T04:38:08;7.22;;;2.40;;
72547;SDS011;60570;50.848;6.776;2022-07-29T04:39:08;7.38;;;1.83;;
72547;SDS011;60570;50.848;6.776;2022-07-29T04:40:10;8.18;;;2.22;;
72547;SDS011;60570;50.848;6.776;2022-07-29T04:41:11;7.68;;;2.03;;
72547;SDS011;60570;50.848;6.776;2022-07-29T04:42:12;9.15;;;2.20;;
72547;SDS011;60570;50.848;6.776;2022-07-29T04:43:12;9.48;;;2.10;;
72547;SDS011;60570;50.848;6.776;2022-07-29T04:44:13;7.70;;;1.83;;
72547;SDS011;60570;50.848;6.776;2022-07-29T04:45:13;5.47;;;1.92;;
72547;SDS011;60570;50.848;6.776;2022-07-29T04:46:14;7.30;;;1.67;;
72547;SDS011;60570;50.848;6.776;2022-07-29T04:47:14;7.35;;;1.58;;
72547;SDS011;60570;50.848;6.776;2022-07-29T04:48:15;7.97;;;1.98;;
72547;SDS011;60570;50.848;6.776;2022-07-29T04:49:15;6.38;;;2.08;;
72547;SDS011;60570;50.848;6.776;2022-07-29T04:50:15;7.80;;;2.15;;
72547;SDS011;60570;50.848;6.776;2022-07-29T04:51:16;6.60;;;1.85;;
72547;SDS011;60570;50.848;6.776;2022-07-29T04:52:17;6.18;;;1.88;;
72547;SDS011;60570;50.848;6.776;2022-07-29T04:53:17;8.10;;;2.08;;
72547;SDS011;60570;50.848;6.776;2022-07-29T04:54:18;8.90;;;2.13;;
72547;SDS011;60570;50.848;6.776;2022-07-29T04:55:19;6.35;;;1.75;;
72547;SDS011;60570;50.848;6.776;2022-07-29T04:56:19;8.52;;;2.22;;
72547;SDS011;60570;50.848;6.776;2022-07-29T04:57:19;7.38;;;1.90;;
72547;SDS011;60570;50.848;6.776;2022-07-29T04:58:20;8.30;;;2.28;;
72547;SDS011;60570;50.848;6.776;2022-07-29T04:59:23;6.43;;;1.73;;
72547;SDS011;60570;50.848;6.776;2022-07-29T05:00:24;6.07;;;1.83;;
72547;SDS011;60570;50.848;6.776;2022-07-29T05:01:25;5.47;;;1.90;;
72547;SDS011;60570;50.848;6.776;2022-07-29T05:02:25;8.90;;;2.17;;
72547;SDS011;60570;50.848;6.776;2022-07-29T05:03:25;7.72;;;1.85;;
72547;SDS011;60570;50.848;6.776;2022-07-29T05:04:26;8.50;;;1.98;;
72547;SDS011;60570;50.848;6.776;2022-07-29T05:05:27;5.70;;;1.73;;
72547;SDS011;60570;50.848;6.776;2022-07-29T05:06:27;6.25;;;1.95;;
72547;SDS011;60570;50.848;6.776;2022-07-29T05:07:27;7.07;;;1.63;;
72547;SDS011;60570;50.848;6.776;2022-07-29T05:08:28;8.13;;;2.13;;
72547;SDS011;60570;50.848;6.776;2022-07-29T05:09:28;7.82;;;1.55;;
72547;SDS011;60570;50.848;6.776;2022-07-29T05:10:29;4.90;;;1.45;;
72547;SDS011;60570;50.848;6.776;2022-07-29T05:11:29;4.75;;;1.50;;
72547;SDS011;60570;50.848;6.776;2022-07-29T05:12:29;6.60;;;1.92;;
72547;SDS011;60570;50.848;6.776;2022-07-29T05:13:30;5.20;;;1.50;;
72547;SDS011;60570;50.848;6.776;2022-07-29T05:14:30;5.63;;;1.75;;
72547;SDS011;60570;50.848;6.776;2022-07-29T05:15:31;6.03;;;1.45;;
72547;SDS011;60570;50.848;6.776;2022-07-29T05:16:31;7.25;;;1.77;;
72547;SDS011;60570;50.848;6.776;2022-07-29T05:17:32;4.20;;;1.30;;
72547;SDS011;60570;50.848;6.776;2022-07-29T05:18:32;5.20;;;1.58;;
72547;SDS011;60570;50.848;6.776;2022-07-29T05:19:33;4.60;;;1.42;;
72547;SDS011;60570;50.848;6.776;2022-07-29T05:20:33;4.15;;;1.40;;
72547;SDS011;60570;50.848;6.776;2022-07-29T05:21:34;5.30;;;1.55;;
72547;SDS011;60570;50.848;6.776;2022-07-29T05:22:35;6.00;;;1.58;;
72547;SDS011;60570;50.848;6.776;2022-07-29T05:23:35;8.45;;;1.80;;
72547;SDS011;60570;50.848;6.776;2022-07-29T05:24:35;6.95;;;1.65;;
72547;SDS011;60570;50.848;6.776;2022-07-29T05:25:36;6.88;;;1.45;;
72547;SDS011;60570;50.848;6.776;2022-07-29T05:26:36;8.15;;;1.80;;
72547;SDS011;60570;50.848;6.776;2022-07-29T05:27:36;4.63;;;1.38;;
72547;SDS011;60570;50.848;6.776;2022-07-29T05:28:37;5.45;;;1.20;;
72547;SDS011;60570;50.848;6.776;2022-07-29T05:29:37;4.93;;;1.45;;
72547;SDS011;60570;50.848;6.776;2022-07-29T05:30:38;5.32;;;1.50;;
72547;SDS011;60570;50.848;6.776;2022-07-29T05:31:38;6.93;;;1.38;;
72547;SDS011;60570;50.848;6.776;2022-07-29T05:32:38;4.70;;;1.25;;
72547;SDS011;60570;50.848;6.776;2022-07-29T05:33:39;5.82;;;1.40;;
72547;SDS011;60570;50.848;6.776;2022-07-29T05:34:41;5.03;;;1.58;;
72547;SDS011;60570;50.848;6.776;2022-07-29T05:35:42;5.18;;;1.50;;
72547;SDS011;60570;50.848;6.776;2022-07-29T05:36:42;5.88;;;1.55;;
72547;SDS011;60570;50.848;6.776;2022-07-29T05:37:42;7.10;;;1.60;;
72547;SDS011;60570;50.848;6.776;2022-07-29T05:38:43;6.70;;;1.50;;
72547;SDS011;60570;50.848;6.776;2022-07-29T05:39:43;5.72;;;1.38;;
72547;SDS011;60570;50.848;6.776;2022-07-29T05:40:44;7.85;;;1.77;;
72547;SDS011;60570;50.848;6.776;2022-07-29T05:41:44;6.85;;;1.73;;
72547;SDS011;60570;50.848;6.776;2022-07-29T05:42:44;4.80;;;1.35;;
72547;SDS011;60570;50.848;6.776;2022-07-29T05:43:45;5.53;;;1.67;;
72547;SDS011;60570;50.848;6.776;2022-07-29T05:44:46;6.18;;;1.65;;
72547;SDS011;60570;50.848;6.776;2022-07-29T05:45:47;5.10;;;1.63;;
72547;SDS011;60570;50.848;6.776;2022-07-29T05:46:47;5.70;;;1.42;;
72547;SDS011;60570;50.848;6.776;2022-07-29T05:47:48;5.93;;;1.42;;
72547;SDS011;60570;50.848;6.776;2022-07-29T05:48:48;6.80;;;1.80;;
72547;SDS011;60570;50.848;6.776;2022-07-29T05:49:48;6.30;;;1.95;;
72547;SDS011;60570;50.848;6.776;2022-07-29T05:50:50;6.18;;;1.40;;
72547;SDS011;60570;50.848;6.776;2022-07-29T05:51:50;4.30;;;1.50;;
72547;SDS011;60570;50.848;6.776;2022-07-29T05:52:51;4.07;;;1.10;;
72547;SDS011;60570;50.848;6.776;2022-07-29T05:53:52;3.65;;;1.33;;
72547;SDS011;60570;50.848;6.776;2022-07-29T05:54:52;4.90;;;1.40;;
72547;SDS011;60570;50.848;6.776;2022-07-29T05:55:53;3.95;;;1.38;;
72547;SDS011;60570;50.848;6.776;2022-07-29T05:56:53;7.75;;;1.20;;
72547;SDS011;60570;50.848;6.776;2022-07-29T05:57:54;4.30;;;1.05;;
72547;SDS011;60570;50.848;6.776;2022-07-29T05:58:54;6.43;;;1.88;;
72547;SDS011;60570;50.848;6.776;2022-07-29T05:59:54;4.65;;;1.45;;
72547;SDS011;60570;50.848;6.776;2022-07-29T06:00:55;5.88;;;1.48;;
72547;SDS011;60570;50.848;6.776;2022-07-29T06:01:59;3.78;;;1.40;;
72547;SDS011;60570;50.848;6.776;2022-07-29T06:02:59;6.65;;;1.50;;
72547;SDS011;60570;50.848;6.776;2022-07-29T06:04:00;5.82;;;1.40;;
72547;SDS011;60570;50.848;6.776;2022-07-29T06:05:00;5.28;;;1.55;;
72547;SDS011;60570;50.848;6.776;2022-07-29T06:06:01;6.47;;;1.60;;
72547;SDS011;60570;50.848;6.776;2022-07-29T06:07:01;4.47;;;1.10;;
72547;SDS011;60570;50.848;6.776;2022-07-29T06:08:01;4.82;;;1.48;;
72547;SDS011;60570;50.848;6.776;2022-07-29T06:09:02;5.72;;;1.05;;
72547;SDS011;60570;50.848;6.776;2022-07-29T06:10:03;7.30;;;1.23;;
72547;SDS011;60570;50.848;6.776;2022-07-29T06:11:04;5.28;;;1.10;;
72547;SDS011;60570;50.848;6.776;2022-07-29T06:12:04;7.00;;;1.60;;
72547;SDS011;60570;50.848;6.776;2022-07-29T06:13:05;5.80;;;1.10;;
72547;SDS011;60570;50.848;6.776;2022-07-29T06:14:05;5.30;;;1.38;;
72547;SDS011;60570;50.848;6.776;2022-07-29T06:15:06;4.93;;;1.50;;
72547;SDS011;60570;50.848;6.776;2022-07-29T06:16:07;4.22;;;1.25;;
72547;SDS011;60570;50.848;6.776;2022-07-29T06:17:07;4.07;;;1.08;;
72547;SDS011;60570;50.848;6.776;2022-07-29T06:18:08;5.18;;;1.10;;
72547;SDS011;60570;50.848;6.776;2022-07-29T06:19:09;5.57;;;1.45;;
72547;SDS011;60570;50.848;6.776;2022-07-29T06:20:10;5.05;;;1.20;;
72547;SDS011;60570;50.848;6.776;2022-07-29T06:21:11;6.30;;;1.20;;
72547;SDS011;60570;50.848;6.776;2022-07-29T06:22:11;7.07;;;1.30;;
72547;SDS011;60570;50.848;6.776;2022-07-29T06:23:12;6.88;;;1.27;;
72547;SDS011;60570;50.848;6.776;2022-07-29T06:24:13;4.78;;;1.38;;
72547;SDS011;60570;50.848;6.776;2022-07-29T06:25:14;5.47;;;1.50;;
72547;SDS011;60570;50.848;6.776;2022-07-29T06:26:14;4.30;;;1.02;;
72547;SDS011;60570;50.848;6.776;2022-07-29T06:27:15;3.15;;;0.93;;
72547;SDS011;60570;50.848;6.776;2022-07-29T06:28:16;7.10;;;1.50;;
72547;SDS011;60570;50.848;6.776;2022-07-29T06:29:16;4.35;;;1.10;;
72547;SDS011;60570;50.848;6.776;2022-07-29T06:30:17;4.22;;;1.13;;
72547;SDS011;60570;50.848;6.776;2022-07-29T06:31:17;4.47;;;1.35;;
72547;SDS011;60570;50.848;6.776;2022-07-29T06:32:17;5.28;;;1.35;;
72547;SDS011;60570;50.848;6.776;2022-07-29T06:33:19;4.35;;;1.05;;
72547;SDS011;60570;50.848;6.776;2022-07-29T06:34:19;6.15;;;1.05;;